Terminal Aerodrome Forecast
Issued by NWS

Home | Current Version | Previous Version | Text Only | Print | Product List | Glossary On
Versions: 1 2 3 4 5 6 7 8 9 10 11 12 13
463
FTUS45 KABQ 062338
TAFAEG
TAF
KAEG 062338Z 0700/0724 17026G36KT P6SM FEW100
     FM070200 19015G25KT P6SM FEW100
     FM070400 21010KT P6SM FEW100
     FM070600 25010KT P6SM SKC
     FM071500 23014G24KT P6SM SCT090=

USA.gov is the U.S. government's official web portal to all federal, state and local government web resources and services.